Time,TemperatureF,DewpointF,PressureIn,WindDirection,WindDirectionDegrees,WindSpeedMPH,WindSpeedGustMPH,Humidity,HourlyPrecipIn,Conditions,Clouds,dailyrainin,SoftwareType,DateUTC
2013-01-11 00:03:00,33.3,32.3,29.71,ESE,109,4.0,8.0,96,0.01,,SKC,0.00,VWS V14.01,2013-01-11 06:03:00,
2013-01-11 00:08:00,33.4,32.4,29.70,ESE,116,4.0,8.0,96,0.01,,SKC,0.00,VWS V14.01,2013-01-11 06:08:00,
2013-01-11 00:13:00,33.4,32.4,29.71,ESE,119,8.0,8.0,96,0.01,,SKC,0.00,VWS V14.01,2013-01-11 06:13:00,
2013-01-11 00:18:00,33.5,32.5,29.71,SE,125,2.0,9.0,96,0.01,,SKC,0.00,VWS V14.01,2013-01-11 06:18:00,
2013-01-11 00:23:00,33.5,32.5,29.70,SE,129,5.0,11.0,96,0.01,,SKC,0.00,VWS V14.01,2013-01-11 06:23:00,
2013-01-11 00:28:00,33.5,32.5,29.70,ESE,123,2.0,11.0,96,0.01,,SKC,0.00,VWS V14.01,2013-01-11 06:28:00,
2013-01-11 00:33:00,33.6,32.6,29.70,ESE,114,4.0,11.0,96,0.01,,SKC,0.00,VWS V14.01,2013-01-11 06:33:00,
2013-01-11 00:38:00,33.6,32.6,29.70,SE,126,6.0,11.0,96,0.01,,SKC,0.00,VWS V14.01,2013-01-11 06:38:00,
2013-01-11 00:43:00,33.7,32.7,29.70,SE,130,6.0,11.0,96,0.01,,SKC,0.00,VWS V14.01,2013-01-11 06:43:00,
2013-01-11 00:48:00,33.7,32.7,29.69,ESE,111,5.0,11.0,96,0.01,,SKC,0.00,VWS V14.01,2013-01-11 06:48:00,
2013-01-11 00:53:00,33.8,32.8,29.69,SE,132,5.0,11.0,96,0.02,,SKC,0.01,VWS V14.01,2013-01-11 06:53:00,
2013-01-11 00:58:00,33.8,32.8,29.68,SE,129,5.0,11.0,96,0.02,,SKC,0.01,VWS V14.01,2013-01-11 06:58:00,
2013-01-11 01:03:00,33.8,32.8,29.68,SE,128,5.0,6.0,96,0.01,,SKC,0.01,VWS V14.01,2013-01-11 07:03:00,
2013-01-11 01:08:00,33.9,32.9,29.68,ESE,107,4.0,7.0,96,0.01,,SKC,0.01,VWS V14.01,2013-01-11 07:08:00,
2013-01-11 01:13:00,33.9,32.9,29.68,ESE,122,4.0,7.0,96,0.01,,SKC,0.01,VWS V14.01,2013-01-11 07:13:00,
2013-01-11 01:18:00,33.9,32.9,29.67,ESE,115,5.0,7.0,96,0.01,,SKC,0.01,VWS V14.01,2013-01-11 07:18:00,
2013-01-11 01:23:00,34.0,33.0,29.68,SE,124,0.0,8.0,96,0.01,,SKC,0.01,VWS V14.01,2013-01-11 07:23:00,
2013-01-11 01:28:00,34.0,33.0,29.67,East,86,4.0,8.0,96,0.01,,SKC,0.01,VWS V14.01,2013-01-11 07:28:00,
2013-01-11 01:33:00,34.1,33.1,29.67,SE,126,2.0,4.0,96,0.01,,SKC,0.01,VWS V14.01,2013-01-11 07:33:00,
2013-01-11 01:38:00,34.1,33.1,29.66,ESE,118,5.0,7.0,96,0.01,,SKC,0.01,VWS V14.01,2013-01-11 07:38:00,
2013-01-11 01:43:00,34.1,33.1,29.66,East,96,2.0,7.0,96,0.01,,SKC,0.01,VWS V14.01,2013-01-11 07:43:00,
2013-01-11 01:48:00,34.1,33.1,29.66,ESE,117,5.0,7.0,96,0.01,,SKC,0.01,VWS V14.01,2013-01-11 07:48:00,
2013-01-11 01:53:00,34.1,33.1,29.66,ESE,118,2.0,7.0,96,0.01,,SKC,0.01,VWS V14.01,2013-01-11 07:53:00,
2013-01-11 01:58:00,34.2,33.4,29.65,ESE,110,4.0,7.0,97,0.01,,SKC,0.01,VWS V14.01,2013-01-11 07:58:00,
2013-01-11 02:03:00,34.2,33.4,29.65,ESE,102,5.0,8.0,97,0.00,,SKC,0.01,VWS V14.01,2013-01-11 08:03:00,
2013-01-11 02:08:00,34.2,33.4,29.65,ESE,105,5.0,8.0,97,0.00,,SKC,0.01,VWS V14.01,2013-01-11 08:08:00,
2013-01-11 02:13:00,34.3,33.5,29.65,ESE,115,6.0,8.0,97,0.00,,SKC,0.01,VWS V14.01,2013-01-11 08:13:00,
2013-01-11 02:18:00,34.3,33.5,29.65,ESE,109,5.0,8.0,97,0.00,,SKC,0.01,VWS V14.01,2013-01-11 08:18:00,
2013-01-11 02:23:00,34.3,33.5,29.65,SE,142,0.0,8.0,97,0.00,,SKC,0.01,VWS V14.01,2013-01-11 08:23:00,
2013-01-11 02:28:00,34.3,33.5,29.65,ESE,120,0.0,8.0,97,0.00,,SKC,0.01,VWS V14.01,2013-01-11 08:28:00,
2013-01-11 02:33:00,34.3,33.5,29.64,East,101,6.0,6.0,97,0.00,,SKC,0.01,VWS V14.01,2013-01-11 08:33:00,
2013-01-11 02:38:00,34.3,33.5,29.64,SE,130,0.0,6.0,97,0.00,,SKC,0.01,VWS V14.01,2013-01-11 08:38:00,
2013-01-11 02:43:00,34.3,33.5,29.64,ESE,113,2.0,6.0,97,0.00,,SKC,0.01,VWS V14.01,2013-01-11 08:43:00,
2013-01-11 02:48:00,34.4,33.6,29.63,ESE,115,5.0,8.0,97,0.00,,SKC,0.01,VWS V14.01,2013-01-11 08:48:00,
2013-01-11 02:53:00,34.4,33.6,29.63,SE,126,4.0,8.0,97,0.00,,SKC,0.01,VWS V14.01,2013-01-11 08:53:00,
2013-01-11 02:58:00,34.4,33.6,29.63,ESE,119,4.0,8.0,97,0.00,,SKC,0.01,VWS V14.01,2013-01-11 08:58:00,
2013-01-11 03:03:00,34.4,33.6,29.63,ESE,121,4.0,6.0,97,0.00,,SKC,0.01,VWS V14.01,2013-01-11 09:03:00,
2013-01-11 03:08:00,34.4,33.6,29.63,ESE,107,5.0,6.0,97,0.00,,SKC,0.01,VWS V14.01,2013-01-11 09:08:00,
2013-01-11 03:13:00,34.4,33.6,29.63,ESE,114,5.0,7.0,97,0.00,,SKC,0.01,VWS V14.01,2013-01-11 09:13:00,
2013-01-11 03:18:00,34.5,33.7,29.62,ESE,121,2.0,7.0,97,0.00,,SKC,0.01,VWS V14.01,2013-01-11 09:18:00,
2013-01-11 03:22:00,34.5,33.7,29.63,ESE,115,0.0,7.0,97,0.00,,SKC,0.01,VWS V14.01,2013-01-11 09:22:00,
2013-01-11 03:27:00,34.4,33.6,29.62,SE,124,4.0,7.0,97,0.00,,SKC,0.01,VWS V14.01,2013-01-11 09:27:00,
2013-01-11 03:33:00,34.4,33.6,29.62,ESE,111,2.0,5.0,97,0.00,,SKC,0.01,VWS V14.01,2013-01-11 09:33:00,
2013-01-11 03:38:00,34.4,33.6,29.61,ESE,109,4.0,6.0,97,0.00,,SKC,0.01,VWS V14.01,2013-01-11 09:38:00,
2013-01-11 03:42:00,34.5,33.7,29.61,ESE,103,6.0,6.0,97,0.00,,SKC,0.01,VWS V14.01,2013-01-11 09:42:00,
2013-01-11 03:47:00,34.5,33.7,29.61,SE,127,4.0,6.0,97,0.00,,SKC,0.01,VWS V14.01,2013-01-11 09:47:00,
2013-01-11 03:52:00,34.5,33.7,29.60,ESE,108,4.0,7.0,97,0.00,,SKC,0.01,VWS V14.01,2013-01-11 09:52:00,
2013-01-11 03:57:00,34.5,33.7,29.60,ESE,123,4.0,9.0,97,0.00,,SKC,0.01,VWS V14.01,2013-01-11 09:57:00,
2013-01-11 04:02:00,34.5,33.7,29.60,ESE,119,5.0,6.0,97,0.00,,SKC,0.01,VWS V14.01,2013-01-11 10:02:00,
2013-01-11 04:08:00,34.5,34.0,29.60,SE,140,8.0,-999.0,97,-99.99,,,0.01,weatherlink.com 1.10,2013-01-11 10:08:00,
2013-01-11 04:13:00,34.4,33.6,29.59,ESE,116,4.0,6.0,97,0.00,,SKC,0.01,VWS V14.01,2013-01-11 10:13:00,
2013-01-11 04:18:00,34.4,33.6,29.60,ESE,120,2.0,6.0,97,0.00,,SKC,0.01,VWS V14.01,2013-01-11 10:18:00,
2013-01-11 04:23:00,34.4,33.6,29.59,SE,134,0.0,6.0,97,0.00,,SKC,0.01,VWS V14.01,2013-01-11 10:23:00,
2013-01-11 04:28:00,34.4,33.6,29.59,ESE,122,5.0,6.0,97,0.00,,SKC,0.01,VWS V14.01,2013-01-11 10:28:00,
2013-01-11 04:33:00,34.4,33.6,29.59,ESE,107,2.0,5.0,97,0.00,,SKC,0.01,VWS V14.01,2013-01-11 10:33:00,
2013-01-11 04:38:00,34.4,33.6,29.59,ESE,117,2.0,5.0,97,0.00,,SKC,0.01,VWS V14.01,2013-01-11 10:38:00,
2013-01-11 04:43:00,34.4,33.6,29.58,ESE,118,0.0,5.0,97,0.00,,SKC,0.01,VWS V14.01,2013-01-11 10:43:00,
2013-01-11 04:48:00,34.4,33.6,29.58,ESE,119,1.0,5.0,97,0.00,,SKC,0.01,VWS V14.01,2013-01-11 10:48:00,
2013-01-11 04:53:00,34.4,33.6,29.58,ESE,116,2.0,5.0,97,0.00,,SKC,0.01,VWS V14.01,2013-01-11 10:53:00,
2013-01-11 04:58:00,34.4,33.6,29.58,SE,124,0.0,5.0,97,0.00,,SKC,0.01,VWS V14.01,2013-01-11 10:58:00,
2013-01-11 05:03:00,34.4,33.6,29.57,SE,126,1.0,5.0,97,0.00,,SKC,0.01,VWS V14.01,2013-01-11 11:03:00,
2013-01-11 05:08:00,34.4,33.6,29.57,ESE,111,4.0,5.0,97,0.00,,SKC,0.01,VWS V14.01,2013-01-11 11:08:00,
2013-01-11 05:13:00,34.4,33.6,29.57,ESE,115,4.0,6.0,97,0.00,,SKC,0.01,VWS V14.01,2013-01-11 11:13:00,
2013-01-11 05:18:00,34.4,33.6,29.57,ESE,112,1.0,7.0,97,0.00,,SKC,0.01,VWS V14.01,2013-01-11 11:18:00,
2013-01-11 05:23:00,34.4,33.6,29.56,ESE,113,0.0,7.0,97,0.00,,SKC,0.01,VWS V14.01,2013-01-11 11:23:00,
2013-01-11 05:28:00,34.4,33.6,29.56,SE,124,2.0,7.0,97,0.00,,SKC,0.01,VWS V14.01,2013-01-11 11:28:00,
2013-01-11 05:33:00,34.4,33.6,29.56,ESE,118,0.0,4.0,97,0.00,,SKC,0.01,VWS V14.01,2013-01-11 11:33:00,
2013-01-11 05:38:00,34.4,33.6,29.56,SE,126,1.0,5.0,97,0.00,,SKC,0.01,VWS V14.01,2013-01-11 11:38:00,
2013-01-11 05:43:00,34.4,33.6,29.56,SE,124,2.0,5.0,97,0.00,,SKC,0.01,VWS V14.01,2013-01-11 11:43:00,
2013-01-11 05:48:00,34.4,33.6,29.56,SE,124,2.0,5.0,97,0.00,,SKC,0.01,VWS V14.01,2013-01-11 11:48:00,
2013-01-11 05:53:00,34.4,33.6,29.56,SE,124,2.0,5.0,97,0.00,,SKC,0.01,VWS V14.01,2013-01-11 11:53:00,
2013-01-11 05:58:00,34.4,33.6,29.56,SE,126,1.0,5.0,97,0.00,,SKC,0.01,VWS V14.01,2013-01-11 11:58:00,
2013-01-11 06:03:00,34.5,33.7,29.56,ESE,122,1.0,5.0,97,0.00,,SKC,0.01,VWS V14.01,2013-01-11 12:03:00,
2013-01-11 06:08:00,34.5,33.7,29.55,SE,127,0.0,5.0,97,0.00,,SKC,0.01,VWS V14.01,2013-01-11 12:08:00,
2013-01-11 06:13:00,34.5,33.7,29.55,ESE,107,2.0,5.0,97,0.00,,SKC,0.01,VWS V14.01,2013-01-11 12:13:00,
2013-01-11 06:18:00,34.5,33.7,29.55,ESE,113,4.0,5.0,97,0.00,,SKC,0.01,VWS V14.01,2013-01-11 12:18:00,
2013-01-11 06:23:00,34.6,33.8,29.55,SE,128,0.0,6.0,97,0.00,,SKC,0.01,VWS V14.01,2013-01-11 12:23:00,
2013-01-11 06:28:00,34.6,33.8,29.55,ESE,105,0.0,6.0,97,0.00,,SKC,0.01,VWS V14.01,2013-01-11 12:28:00,
2013-01-11 06:33:00,34.6,33.8,29.55,ESE,114,5.0,6.0,97,0.00,,SKC,0.01,VWS V14.01,2013-01-11 12:33:00,
2013-01-11 06:38:00,34.6,33.8,29.55,ESE,119,2.0,6.0,97,0.00,,SKC,0.01,VWS V14.01,2013-01-11 12:38:00,
2013-01-11 06:43:00,34.6,33.8,29.55,ESE,110,1.0,6.0,97,0.00,,SKC,0.01,VWS V14.01,2013-01-11 12:43:00,
2013-01-11 06:48:00,34.6,33.8,29.55,ESE,119,2.0,7.0,97,0.00,,SKC,0.01,VWS V14.01,2013-01-11 12:48:00,
2013-01-11 06:53:00,34.7,33.9,29.54,East,90,6.0,7.0,97,0.00,,SKC,0.01,VWS V14.01,2013-01-11 12:53:00,
2013-01-11 06:58:00,34.7,33.9,29.55,East,99,4.0,8.0,97,0.00,,SKC,0.01,VWS V14.01,2013-01-11 12:58:00,
2013-01-11 07:03:00,34.7,33.9,29.55,ESE,119,2.0,8.0,97,0.00,,SKC,0.01,VWS V14.01,2013-01-11 13:03:00,
2013-01-11 07:08:00,34.7,33.9,29.54,ESE,115,5.0,8.0,97,0.00,,SKC,0.01,VWS V14.01,2013-01-11 13:08:00,
2013-01-11 07:13:00,34.7,33.9,29.54,ESE,123,4.0,8.0,97,0.00,,SKC,0.01,VWS V14.01,2013-01-11 13:13:00,
2013-01-11 07:18:00,34.7,33.9,29.53,ESE,117,4.0,9.0,97,0.00,,SKC,0.01,VWS V14.01,2013-01-11 13:18:00,
2013-01-11 07:23:00,34.8,34.0,29.53,SE,128,2.0,9.0,97,0.00,,SKC,0.01,VWS V14.01,2013-01-11 13:23:00,
2013-01-11 07:28:00,34.8,34.0,29.53,SE,132,4.0,9.0,97,0.00,,SKC,0.01,VWS V14.01,2013-01-11 13:28:00,
2013-01-11 07:33:00,34.8,34.0,29.52,ENE,78,5.0,7.0,97,0.00,,SKC,0.01,VWS V14.01,2013-01-11 13:33:00,
2013-01-11 07:38:00,34.8,34.0,29.52,ESE,120,4.0,7.0,97,0.00,,SKC,0.01,VWS V14.01,2013-01-11 13:38:00,
2013-01-11 07:43:00,34.8,34.0,29.53,ESE,117,0.0,7.0,97,0.00,,SKC,0.01,VWS V14.01,2013-01-11 13:43:00,
2013-01-11 07:48:00,34.8,34.0,29.54,East,98,2.0,7.0,97,0.00,,SKC,0.01,VWS V14.01,2013-01-11 13:48:00,
2013-01-11 07:53:00,34.9,34.1,29.53,ESE,123,2.0,7.0,97,0.00,,SKC,0.01,VWS V14.01,2013-01-11 13:53:00,
2013-01-11 07:58:00,34.9,34.1,29.54,ESE,107,4.0,7.0,97,0.00,,SKC,0.01,VWS V14.01,2013-01-11 13:58:00,
2013-01-11 08:03:00,34.9,34.1,29.54,ESE,120,2.0,6.0,97,0.00,,SKC,0.01,VWS V14.01,2013-01-11 14:03:00,
2013-01-11 08:08:00,34.9,34.1,29.53,ESE,119,2.0,7.0,97,0.00,,SKC,0.01,VWS V14.01,2013-01-11 14:08:00,
2013-01-11 08:13:00,35.0,34.2,29.53,ESE,115,5.0,8.0,97,0.00,,SKC,0.01,VWS V14.01,2013-01-11 14:13:00,
2013-01-11 08:18:00,35.0,34.2,29.53,SE,126,0.0,8.0,97,0.00,,SKC,0.01,VWS V14.01,2013-01-11 14:18:00,
2013-01-11 08:23:00,35.0,34.2,29.53,SE,132,4.0,8.0,97,0.00,,SKC,0.01,VWS V14.01,2013-01-11 14:23:00,
2013-01-11 08:28:00,35.0,34.2,29.53,SE,134,2.0,8.0,97,0.00,,SKC,0.01,VWS V14.01,2013-01-11 14:28:00,
2013-01-11 08:33:00,35.1,34.3,29.53,ESE,117,5.0,8.0,97,0.00,,SKC,0.01,VWS V14.01,2013-01-11 14:33:00,
2013-01-11 08:38:00,35.1,34.3,29.53,SE,132,2.0,8.0,97,0.00,,SKC,0.01,VWS V14.01,2013-01-11 14:38:00,
2013-01-11 08:43:00,35.1,34.3,29.53,ESE,110,8.0,8.0,97,0.00,,SKC,0.01,VWS V14.01,2013-01-11 14:43:00,
2013-01-11 08:48:00,35.2,34.4,29.53,ESE,123,2.0,8.0,97,0.00,,SKC,0.01,VWS V14.01,2013-01-11 14:48:00,
2013-01-11 08:53:00,35.2,34.4,29.52,ESE,115,0.0,8.0,97,0.00,,SKC,0.01,VWS V14.01,2013-01-11 14:53:00,
2013-01-11 08:58:00,35.2,34.4,29.52,ESE,107,2.0,8.0,97,0.00,,SKC,0.01,VWS V14.01,2013-01-11 14:58:00,
2013-01-11 09:03:00,35.2,34.4,29.52,SE,125,5.0,5.0,97,0.00,,SKC,0.01,VWS V14.01,2013-01-11 15:03:00,
2013-01-11 09:08:00,35.2,34.4,29.53,ESE,113,5.0,6.0,97,0.00,,SKC,0.01,VWS V14.01,2013-01-11 15:08:00,
2013-01-11 09:13:00,35.3,34.5,29.53,SE,124,1.0,6.0,97,0.00,,SKC,0.01,VWS V14.01,2013-01-11 15:13:00,
2013-01-11 09:18:00,35.3,34.5,29.53,ESE,117,2.0,6.0,97,0.00,,SKC,0.01,VWS V14.01,2013-01-11 15:18:00,
2013-01-11 09:23:00,35.4,34.6,29.52,ESE,123,2.0,8.0,97,0.00,,SKC,0.01,VWS V14.01,2013-01-11 15:23:00,
2013-01-11 09:34:00,35.4,34.6,29.52,ESE,120,4.0,8.0,97,0.00,,SKC,0.01,VWS V14.01,2013-01-11 15:34:00,
2013-01-11 09:39:00,35.5,34.7,29.52,ESE,116,5.0,8.0,97,0.00,,SKC,0.01,VWS V14.01,2013-01-11 15:39:00,
2013-01-11 09:44:00,35.5,34.7,29.52,ESE,112,5.0,8.0,97,0.00,,SKC,0.01,VWS V14.01,2013-01-11 15:44:00,
2013-01-11 09:49:00,35.5,34.7,29.51,SE,130,4.0,8.0,97,0.00,,SKC,0.01,VWS V14.01,2013-01-11 15:49:00,
2013-01-11 09:54:00,35.6,34.8,29.52,ESE,115,4.0,8.0,97,0.00,,SKC,0.01,VWS V14.01,2013-01-11 15:54:00,
2013-01-11 09:59:00,35.6,34.8,29.52,ESE,118,0.0,8.0,97,0.00,,SKC,0.01,VWS V14.01,2013-01-11 15:59:00,
2013-01-11 10:04:00,35.7,34.9,29.53,ESE,123,1.0,5.0,97,0.00,,SKC,0.01,VWS V14.01,2013-01-11 16:04:00,
2013-01-11 10:09:00,35.7,34.9,29.53,SE,133,2.0,5.0,97,0.00,,SKC,0.01,VWS V14.01,2013-01-11 16:09:00,
2013-01-11 10:14:00,35.7,34.9,29.53,SE,134,4.0,7.0,97,0.00,,SKC,0.01,VWS V14.01,2013-01-11 16:14:00,
2013-01-11 10:19:00,35.8,35.0,29.52,ESE,118,4.0,7.0,97,0.00,,SKC,0.01,VWS V14.01,2013-01-11 16:19:00,
2013-01-11 10:24:00,35.8,35.0,29.52,SE,126,0.0,7.0,97,0.00,,SKC,0.01,VWS V14.01,2013-01-11 16:24:00,
2013-01-11 10:29:00,35.8,35.0,29.53,ESE,113,0.0,7.0,97,0.00,,SKC,0.01,VWS V14.01,2013-01-11 16:29:00,
2013-01-11 10:34:00,35.8,35.0,29.53,ESE,117,0.0,4.0,97,0.00,,SKC,0.01,VWS V14.01,2013-01-11 16:34:00,
2013-01-11 10:39:00,35.9,35.1,29.53,SSE,148,0.0,4.0,97,0.00,,SKC,0.01,VWS V14.01,2013-01-11 16:39:00,
2013-01-11 10:44:00,35.9,35.1,29.52,SE,126,2.0,7.0,97,0.00,,SKC,0.01,VWS V14.01,2013-01-11 16:44:00,
2013-01-11 10:49:00,35.9,35.1,29.52,SE,126,0.0,7.0,97,0.00,,SKC,0.01,VWS V14.01,2013-01-11 16:49:00,
2013-01-11 10:54:00,36.0,35.2,29.52,SE,131,2.0,7.0,97,0.00,,SKC,0.01,VWS V14.01,2013-01-11 16:54:00,
2013-01-11 10:59:00,36.0,35.2,29.52,ESE,123,2.0,7.0,97,0.00,,SKC,0.01,VWS V14.01,2013-01-11 16:59:00,
2013-01-11 11:04:00,36.0,35.2,29.52,ESE,122,1.0,4.0,97,0.00,,SKC,0.01,VWS V14.01,2013-01-11 17:04:00,
2013-01-11 11:09:00,36.1,35.3,29.52,ESE,122,0.0,4.0,97,0.00,,SKC,0.01,VWS V14.01,2013-01-11 17:09:00,
2013-01-11 11:14:00,36.1,35.3,29.52,ESE,122,4.0,4.0,97,0.00,,SKC,0.01,VWS V14.01,2013-01-11 17:14:00,
2013-01-11 11:19:00,36.2,35.4,29.51,ESE,123,0.0,4.0,97,0.00,,SKC,0.01,VWS V14.01,2013-01-11 17:19:00,
2013-01-11 11:24:00,36.2,35.4,29.50,ESE,122,0.0,4.0,97,0.00,,SKC,0.01,VWS V14.01,2013-01-11 17:24:00,
2013-01-11 11:29:00,36.3,35.5,29.50,ESE,122,1.0,5.0,97,0.00,,SKC,0.01,VWS V14.01,2013-01-11 17:29:00,
2013-01-11 11:34:00,36.4,35.6,29.50,ESE,122,0.0,4.0,97,0.00,,SKC,0.01,VWS V14.01,2013-01-11 17:34:00,
2013-01-11 11:39:00,36.4,35.9,29.50,ESE,122,2.0,4.0,98,0.00,,SKC,0.01,VWS V14.01,2013-01-11 17:39:00,
2013-01-11 11:44:00,36.4,35.9,29.50,ESE,111,2.0,5.0,98,0.00,,SKC,0.01,VWS V14.01,2013-01-11 17:44:00,
2013-01-11 11:49:00,36.4,35.9,29.49,ESE,113,0.0,5.0,98,0.00,,SKC,0.01,VWS V14.01,2013-01-11 17:49:00,
2013-01-11 11:54:00,36.4,35.9,29.49,ESE,114,2.0,5.0,98,0.00,,SKC,0.01,VWS V14.01,2013-01-11 17:54:00,
2013-01-11 11:59:00,36.5,36.0,29.49,ESE,114,0.0,5.0,98,0.00,,SKC,0.01,VWS V14.01,2013-01-11 17:59:00,
2013-01-11 12:04:00,36.4,35.9,29.49,ESE,114,2.0,2.0,98,0.00,,SKC,0.01,VWS V14.01,2013-01-11 18:04:00,
2013-01-11 12:09:00,36.5,36.0,29.48,ESE,111,1.0,7.0,98,0.00,,SKC,0.01,VWS V14.01,2013-01-11 18:09:00,
2013-01-11 12:14:00,36.6,36.1,29.48,ESE,105,2.0,7.0,98,0.00,,SKC,0.01,VWS V14.01,2013-01-11 18:14:00,
2013-01-11 12:18:00,36.7,36.2,29.47,East,100,2.0,7.0,98,0.00,,SKC,0.01,VWS V14.01,2013-01-11 18:18:00,
2013-01-11 12:23:00,36.8,36.0,29.47,ESE,121,6.0,7.0,97,0.00,,SKC,0.01,VWS V14.01,2013-01-11 18:23:00,
2013-01-11 12:28:00,36.9,36.1,29.46,ESE,119,1.0,7.0,97,0.00,,SKC,0.01,VWS V14.01,2013-01-11 18:28:00,
2013-01-11 12:33:00,37.0,36.2,29.47,ESE,107,0.0,6.0,97,0.00,,SKC,0.01,VWS V14.01,2013-01-11 18:33:00,
2013-01-11 12:38:00,37.1,36.6,29.46,ESE,105,0.0,6.0,98,0.00,,SKC,0.01,VWS V14.01,2013-01-11 18:38:00,
2013-01-11 12:44:00,37.2,36.7,29.46,ESE,108,4.0,7.0,98,0.00,,SKC,0.01,VWS V14.01,2013-01-11 18:44:00,
2013-01-11 12:48:00,37.3,36.8,29.46,ESE,121,5.0,7.0,98,0.00,,SKC,0.01,VWS V14.01,2013-01-11 18:48:00,
2013-01-11 12:53:00,37.4,36.9,29.46,SE,130,5.0,7.0,98,0.00,,SKC,0.01,VWS V14.01,2013-01-11 18:53:00,
2013-01-11 12:58:00,37.5,37.0,29.46,ESE,105,1.0,7.0,98,0.00,,SKC,0.01,VWS V14.01,2013-01-11 18:58:00,
2013-01-11 13:03:00,37.5,37.0,29.46,ESE,121,2.0,7.0,98,0.00,,SKC,0.01,VWS V14.01,2013-01-11 19:03:00,
2013-01-11 13:08:00,37.5,37.0,29.45,SE,130,5.0,7.0,98,0.01,,SKC,0.02,VWS V14.01,2013-01-11 19:08:00,
2013-01-11 13:13:00,37.5,36.7,29.45,SE,128,0.0,7.0,97,0.01,,SKC,0.02,VWS V14.01,2013-01-11 19:13:00,
2013-01-11 13:18:00,37.5,37.0,29.45,East,101,1.0,7.0,98,0.01,,SKC,0.02,VWS V14.01,2013-01-11 19:18:00,
2013-01-11 13:23:00,37.5,37.0,29.45,ESE,103,2.0,7.0,98,0.01,,SKC,0.02,VWS V14.01,2013-01-11 19:23:00,
2013-01-11 13:28:00,37.5,37.0,29.45,ESE,108,2.0,7.0,98,0.01,,SKC,0.02,VWS V14.01,2013-01-11 19:28:00,
2013-01-11 13:33:00,37.5,37.0,29.45,ESE,122,0.0,5.0,98,0.01,,SKC,0.02,VWS V14.01,2013-01-11 19:33:00,
2013-01-11 13:38:00,37.4,36.6,29.45,ESE,122,0.0,5.0,97,0.01,,SKC,0.02,VWS V14.01,2013-01-11 19:38:00,
2013-01-11 13:43:00,37.4,36.6,29.45,ESE,108,2.0,7.0,97,0.01,,SKC,0.02,VWS V14.01,2013-01-11 19:43:00,
2013-01-11 13:48:00,37.4,36.6,29.45,SE,130,0.0,7.0,97,0.01,,SKC,0.02,VWS V14.01,2013-01-11 19:48:00,
2013-01-11 13:53:00,37.4,36.6,29.45,ESE,107,2.0,7.0,97,0.01,,SKC,0.02,VWS V14.01,2013-01-11 19:53:00,
2013-01-11 13:58:00,37.3,36.5,29.45,East,91,4.0,7.0,97,0.01,,SKC,0.02,VWS V14.01,2013-01-11 19:58:00,
2013-01-11 14:03:00,37.3,36.5,29.44,East,91,0.0,2.0,97,0.01,,SKC,0.02,VWS V14.01,2013-01-11 20:03:00,
2013-01-11 14:08:00,37.3,36.5,29.45,East,101,4.0,4.0,97,0.01,,SKC,0.02,VWS V14.01,2013-01-11 20:08:00,
2013-01-11 14:13:00,37.4,36.6,29.45,ESE,111,0.0,5.0,97,0.01,,SKC,0.02,VWS V14.01,2013-01-11 20:13:00,
2013-01-11 14:18:00,37.4,36.6,29.45,ESE,113,0.0,5.0,97,0.01,,SKC,0.02,VWS V14.01,2013-01-11 20:18:00,
2013-01-11 14:23:00,37.4,36.6,29.45,SE,125,0.0,6.0,97,0.01,,SKC,0.02,VWS V14.01,2013-01-11 20:23:00,
2013-01-11 14:28:00,37.4,36.6,29.45,ESE,122,4.0,6.0,97,0.01,,SKC,0.02,VWS V14.01,2013-01-11 20:28:00,
2013-01-11 14:33:00,37.5,37.0,29.45,ESE,117,4.0,5.0,98,0.00,,SKC,0.02,VWS V14.01,2013-01-11 20:33:00,
2013-01-11 14:38:00,37.5,37.0,29.45,ESE,118,5.0,6.0,98,0.00,,SKC,0.02,VWS V14.01,2013-01-11 20:38:00,
2013-01-11 14:43:00,37.5,37.0,29.45,ESE,114,1.0,6.0,98,0.00,,SKC,0.02,VWS V14.01,2013-01-11 20:43:00,
2013-01-11 14:48:00,37.5,37.0,29.44,East,99,6.0,7.0,98,0.00,,SKC,0.02,VWS V14.01,2013-01-11 20:48:00,
2013-01-11 14:53:00,37.5,37.0,29.44,SE,130,6.0,8.0,98,0.00,,SKC,0.02,VWS V14.01,2013-01-11 20:53:00,
2013-01-11 14:58:00,37.5,37.0,29.44,ESE,117,4.0,8.0,98,0.00,,SKC,0.02,VWS V14.01,2013-01-11 20:58:00,
2013-01-11 15:03:00,37.5,37.0,29.44,ESE,103,2.0,6.0,98,0.00,,SKC,0.02,VWS V14.01,2013-01-11 21:03:00,
2013-01-11 15:08:00,37.5,37.0,29.44,ESE,121,5.0,9.0,98,0.00,,SKC,0.02,VWS V14.01,2013-01-11 21:08:00,
2013-01-11 15:13:00,37.4,36.6,29.44,ESE,120,5.0,9.0,97,0.00,,SKC,0.02,VWS V14.01,2013-01-11 21:13:00,
2013-01-11 15:18:00,37.3,36.5,29.43,SE,139,6.0,9.0,97,0.00,,SKC,0.02,VWS V14.01,2013-01-11 21:18:00,
2013-01-11 15:23:00,37.3,36.5,29.43,ESE,123,5.0,9.0,97,0.00,,SKC,0.02,VWS V14.01,2013-01-11 21:23:00,
2013-01-11 15:28:00,37.4,36.6,29.43,ESE,120,4.0,9.0,97,0.00,,SKC,0.02,VWS V14.01,2013-01-11 21:28:00,
2013-01-11 15:33:00,37.4,36.6,29.43,ENE,77,4.0,7.0,97,0.00,,SKC,0.02,VWS V14.01,2013-01-11 21:33:00,
2013-01-11 15:38:00,37.3,36.5,29.43,SE,129,5.0,8.0,97,0.00,,SKC,0.02,VWS V14.01,2013-01-11 21:38:00,
2013-01-11 15:43:00,37.3,36.5,29.42,ESE,119,5.0,8.0,97,0.00,,SKC,0.02,VWS V14.01,2013-01-11 21:43:00,
2013-01-11 15:48:00,37.2,36.4,29.42,ESE,112,4.0,8.0,97,0.00,,SKC,0.02,VWS V14.01,2013-01-11 21:48:00,
2013-01-11 15:53:00,37.1,36.3,29.43,ESE,107,1.0,8.0,97,0.00,,SKC,0.02,VWS V14.01,2013-01-11 21:53:00,
2013-01-11 15:58:00,37.2,36.4,29.43,ESE,109,4.0,8.0,97,0.00,,SKC,0.02,VWS V14.01,2013-01-11 21:58:00,
2013-01-11 16:03:00,37.1,36.6,29.43,ESE,121,4.0,7.0,98,0.00,,SKC,0.02,VWS V14.01,2013-01-11 22:03:00,
2013-01-11 16:08:00,37.1,36.6,29.43,ESE,108,4.0,7.0,98,0.00,,SKC,0.02,VWS V14.01,2013-01-11 22:08:00,
2013-01-11 16:13:00,37.0,36.5,29.43,East,89,3.0,7.0,98,0.00,,SKC,0.02,VWS V14.01,2013-01-11 22:13:00,
2013-01-11 16:18:00,36.9,36.4,29.43,ESE,116,1.0,7.0,98,0.00,,SKC,0.02,VWS V14.01,2013-01-11 22:18:00,
2013-01-11 16:23:00,37.0,36.2,29.43,East,100,2.0,7.0,97,0.00,,SKC,0.02,VWS V14.01,2013-01-11 22:23:00,
2013-01-11 16:28:00,36.9,36.1,29.42,ESE,105,2.0,7.0,97,0.00,,SKC,0.02,VWS V14.01,2013-01-11 22:28:00,
2013-01-11 16:33:00,36.8,36.0,29.42,ESE,107,5.0,6.0,97,0.00,,SKC,0.02,VWS V14.01,2013-01-11 22:33:00,
2013-01-11 16:38:00,36.8,36.0,29.42,East,94,5.0,7.0,97,0.00,,SKC,0.02,VWS V14.01,2013-01-11 22:38:00,
2013-01-11 16:43:00,36.7,35.9,29.42,East,90,5.0,7.0,97,0.00,,SKC,0.02,VWS V14.01,2013-01-11 22:43:00,
2013-01-11 16:48:00,36.7,36.2,29.41,ESE,109,4.0,7.0,98,0.00,,SKC,0.02,VWS V14.01,2013-01-11 22:48:00,
2013-01-11 16:53:00,36.6,36.1,29.42,ESE,117,4.0,7.0,98,0.00,,SKC,0.02,VWS V14.01,2013-01-11 22:53:00,
2013-01-11 16:58:00,36.6,36.1,29.41,East,96,2.0,7.0,98,0.00,,SKC,0.02,VWS V14.01,2013-01-11 22:58:00,
2013-01-11 17:03:00,36.6,36.1,29.41,East,92,2.0,5.0,98,0.00,,SKC,0.02,VWS V14.01,2013-01-11 23:03:00,
2013-01-11 17:08:00,36.7,36.2,29.41,ESE,110,4.0,6.0,98,0.00,,SKC,0.02,VWS V14.01,2013-01-11 23:08:00,
2013-01-11 17:13:00,36.7,36.2,29.41,East,96,0.0,6.0,98,0.00,,SKC,0.02,VWS V14.01,2013-01-11 23:13:00,
2013-01-11 17:18:00,36.6,36.1,29.41,East,93,4.0,6.0,98,0.01,,SKC,0.03,VWS V14.01,2013-01-11 23:18:00,
2013-01-11 17:23:00,36.6,36.1,29.41,ESE,111,4.0,7.0,98,0.01,,SKC,0.03,VWS V14.01,2013-01-11 23:23:00,
2013-01-11 17:28:00,36.7,36.2,29.41,ESE,119,2.0,7.0,98,0.01,,SKC,0.03,VWS V14.01,2013-01-11 23:28:00,
2013-01-11 17:33:00,36.6,36.1,29.40,East,97,4.0,5.0,98,0.01,,SKC,0.03,VWS V14.01,2013-01-11 23:33:00,
2013-01-11 17:38:00,36.6,36.1,29.41,ESE,114,4.0,6.0,98,0.01,,SKC,0.03,VWS V14.01,2013-01-11 23:38:00,
2013-01-11 17:43:00,36.7,36.2,29.41,East,92,4.0,6.0,98,0.01,,SKC,0.03,VWS V14.01,2013-01-11 23:43:00,
2013-01-11 17:48:00,36.7,36.2,29.39,East,98,5.0,6.0,98,0.01,,SKC,0.03,VWS V14.01,2013-01-11 23:48:00,
2013-01-11 17:53:00,36.7,36.2,29.39,East,80,2.0,6.0,98,0.01,,SKC,0.03,VWS V14.01,2013-01-11 23:53:00,
2013-01-11 17:58:00,36.8,36.3,29.39,ESE,121,2.0,7.0,98,0.01,,SKC,0.03,VWS V14.01,2013-01-11 23:58:00,
2013-01-11 18:03:00,36.8,36.3,29.39,East,95,7.0,11.0,98,0.01,,SKC,0.03,VWS V14.01,2013-01-12 00:03:00,
2013-01-11 18:08:00,36.9,36.4,29.39,East,92,1.0,11.0,98,0.01,,SKC,0.03,VWS V14.01,2013-01-12 00:08:00,
2013-01-11 18:13:00,36.9,36.4,29.38,East,98,4.0,11.0,98,0.01,,SKC,0.03,VWS V14.01,2013-01-12 00:13:00,
2013-01-11 18:18:00,36.9,36.4,29.38,East,88,3.0,11.0,98,0.01,,SKC,0.03,VWS V14.01,2013-01-12 00:18:00,
2013-01-11 18:23:00,36.9,36.4,29.38,ESE,115,4.0,11.0,98,0.01,,SKC,0.03,VWS V14.01,2013-01-12 00:23:00,
2013-01-11 18:28:00,36.9,36.4,29.37,ESE,118,2.0,11.0,98,0.01,,SKC,0.03,VWS V14.01,2013-01-12 00:28:00,
2013-01-11 18:33:00,37.0,36.5,29.37,ESE,107,6.0,8.0,98,0.00,,SKC,0.03,VWS V14.01,2013-01-12 00:33:00,
2013-01-11 18:38:00,37.1,36.6,29.38,ESE,111,5.0,11.0,98,0.00,,SKC,0.03,VWS V14.01,2013-01-12 00:38:00,
2013-01-11 18:43:00,37.1,36.6,29.38,ESE,103,4.0,11.0,98,0.00,,SKC,0.03,VWS V14.01,2013-01-12 00:43:00,
2013-01-11 18:48:00,37.1,36.6,29.36,ESE,117,4.0,11.0,98,0.00,,SKC,0.03,VWS V14.01,2013-01-12 00:48:00,
2013-01-11 18:53:00,37.1,36.6,29.37,ESE,102,4.0,11.0,98,0.00,,SKC,0.03,VWS V14.01,2013-01-12 00:53:00,
2013-01-11 18:58:00,37.1,36.6,29.37,ESE,112,2.0,11.0,98,0.00,,SKC,0.03,VWS V14.01,2013-01-12 00:58:00,
2013-01-11 19:03:00,37.2,36.7,29.37,ESE,118,4.0,7.0,98,0.00,,SKC,0.03,VWS V14.01,2013-01-12 01:03:00,
2013-01-11 19:08:00,37.3,36.8,29.36,ESE,117,4.0,8.0,98,0.00,,SKC,0.03,VWS V14.01,2013-01-12 01:08:00,
2013-01-11 19:13:00,37.4,36.9,29.36,ESE,114,4.0,9.0,98,0.00,,SKC,0.03,VWS V14.01,2013-01-12 01:13:00,
2013-01-11 19:18:00,37.4,36.9,29.36,SE,127,5.0,9.0,98,0.00,,SKC,0.03,VWS V14.01,2013-01-12 01:18:00,
2013-01-11 19:23:00,37.4,36.9,29.36,ESE,119,0.0,9.0,98,0.00,,SKC,0.03,VWS V14.01,2013-01-12 01:23:00,
2013-01-11 19:28:00,37.3,36.8,29.35,SE,126,5.0,9.0,98,0.00,,SKC,0.03,VWS V14.01,2013-01-12 01:28:00,
2013-01-11 19:33:00,37.4,36.9,29.36,SE,132,4.0,7.0,98,0.00,,SKC,0.03,VWS V14.01,2013-01-12 01:33:00,
2013-01-11 19:38:00,37.4,36.9,29.35,SE,134,6.0,8.0,98,0.00,,SKC,0.03,VWS V14.01,2013-01-12 01:38:00,
2013-01-11 19:43:00,37.5,37.0,29.35,ESE,115,5.0,9.0,98,0.00,,SKC,0.03,VWS V14.01,2013-01-12 01:43:00,
2013-01-11 19:48:00,37.5,37.0,29.35,ESE,105,0.0,9.0,98,0.00,,SKC,0.03,VWS V14.01,2013-01-12 01:48:00,
2013-01-11 19:53:00,37.5,37.0,29.35,ESE,111,5.0,9.0,98,0.00,,SKC,0.03,VWS V14.01,2013-01-12 01:53:00,
2013-01-11 19:58:00,37.5,37.0,29.35,ESE,123,5.0,9.0,98,0.00,,SKC,0.03,VWS V14.01,2013-01-12 01:58:00,
2013-01-11 20:03:00,37.5,37.0,29.35,ESE,111,5.0,7.0,98,0.00,,SKC,0.03,VWS V14.01,2013-01-12 02:03:00,
2013-01-11 20:08:00,37.6,37.1,29.35,ESE,105,5.0,7.0,98,0.00,,SKC,0.03,VWS V14.01,2013-01-12 02:08:00,
2013-01-11 20:13:00,37.6,37.1,29.36,SE,127,5.0,7.0,98,0.00,,SKC,0.03,VWS V14.01,2013-01-12 02:13:00,
2013-01-11 20:18:00,37.7,37.2,29.36,SE,125,4.0,7.0,98,0.00,,SKC,0.03,VWS V14.01,2013-01-12 02:18:00,
2013-01-11 20:23:00,37.8,37.3,29.36,SE,124,4.0,7.0,98,0.00,,SKC,0.03,VWS V14.01,2013-01-12 02:23:00,
2013-01-11 20:28:00,37.8,37.3,29.35,ESE,108,4.0,8.0,98,0.00,,SKC,0.03,VWS V14.01,2013-01-12 02:28:00,
2013-01-11 20:33:00,37.9,37.4,29.35,East,98,2.0,7.0,98,0.00,,SKC,0.03,VWS V14.01,2013-01-12 02:33:00,
2013-01-11 20:38:00,38.0,37.5,29.35,ESE,119,4.0,8.0,98,0.01,,SKC,0.04,VWS V14.01,2013-01-12 02:38:00,
2013-01-11 20:43:00,38.0,37.5,29.35,ESE,107,6.0,8.0,98,0.01,,SKC,0.04,VWS V14.01,2013-01-12 02:43:00,
2013-01-11 20:48:00,38.1,37.6,29.35,SE,126,6.0,8.0,98,0.01,,SKC,0.04,VWS V14.01,2013-01-12 02:48:00,
2013-01-11 20:53:00,38.2,37.7,29.35,ESE,109,2.0,8.0,98,0.01,,SKC,0.04,VWS V14.01,2013-01-12 02:53:00,
2013-01-11 20:58:00,38.2,37.7,29.35,East,92,5.0,8.0,98,0.01,,SKC,0.04,VWS V14.01,2013-01-12 02:58:00,
2013-01-11 21:03:00,38.2,37.7,29.34,ESE,112,2.0,7.0,98,0.01,,SKC,0.04,VWS V14.01,2013-01-12 03:03:00,
2013-01-11 21:08:00,38.2,37.7,29.34,ESE,113,4.0,7.0,98,0.01,,SKC,0.04,VWS V14.01,2013-01-12 03:08:00,
2013-01-11 21:13:00,38.3,37.8,29.34,SE,143,5.0,7.0,98,0.01,,SKC,0.04,VWS V14.01,2013-01-12 03:13:00,
2013-01-11 21:18:00,38.3,37.8,29.33,ESE,115,2.0,7.0,98,0.01,,SKC,0.04,VWS V14.01,2013-01-12 03:18:00,
2013-01-11 21:23:00,38.4,37.9,29.33,ESE,120,2.0,7.0,98,0.01,,SKC,0.04,VWS V14.01,2013-01-12 03:23:00,
2013-01-11 21:28:00,38.4,37.9,29.33,ESE,112,4.0,7.0,98,0.01,,SKC,0.04,VWS V14.01,2013-01-12 03:28:00,
2013-01-11 21:33:00,38.3,37.8,29.33,ESE,123,1.0,6.0,98,0.01,,SKC,0.04,VWS V14.01,2013-01-12 03:33:00,
2013-01-11 21:38:00,38.3,37.8,29.33,ESE,109,4.0,7.0,98,0.01,,SKC,0.04,VWS V14.01,2013-01-12 03:38:00,
2013-01-11 21:43:00,38.3,37.8,29.33,ESE,108,0.0,7.0,98,0.01,,SKC,0.04,VWS V14.01,2013-01-12 03:43:00,
2013-01-11 21:48:00,38.4,37.9,29.33,ESE,116,0.0,7.0,98,0.01,,SKC,0.04,VWS V14.01,2013-01-12 03:48:00,
2013-01-11 21:53:00,38.3,37.8,29.33,ESE,117,4.0,8.0,98,0.01,,SKC,0.04,VWS V14.01,2013-01-12 03:53:00,
2013-01-11 21:58:00,38.3,37.8,29.33,ESE,120,1.0,8.0,98,0.01,,SKC,0.04,VWS V14.01,2013-01-12 03:58:00,
2013-01-11 22:03:00,38.3,37.8,29.33,ESE,123,2.0,4.0,98,0.00,,SKC,0.04,VWS V14.01,2013-01-12 04:03:00,
2013-01-11 22:08:00,38.4,37.9,29.32,SSE,159,0.0,7.0,98,0.00,,SKC,0.04,VWS V14.01,2013-01-12 04:08:00,
2013-01-11 22:13:00,38.5,38.0,29.32,SE,138,5.0,7.0,98,0.00,,SKC,0.04,VWS V14.01,2013-01-12 04:13:00,
2013-01-11 22:18:00,38.5,38.0,29.32,ESE,120,5.0,7.0,98,0.00,,SKC,0.04,VWS V14.01,2013-01-12 04:18:00,
2013-01-11 22:24:00,38.7,38.2,29.32,ESE,118,1.0,7.0,98,0.00,,SKC,0.04,VWS V14.01,2013-01-12 04:24:00,
2013-01-11 22:30:00,38.7,38.2,29.32,ESE,116,1.0,7.0,98,0.00,,SKC,0.04,VWS V14.01,2013-01-12 04:30:00,
2013-01-11 22:35:00,39.1,38.6,29.32,ESE,120,2.0,7.0,98,0.00,,SKC,0.04,VWS V14.01,2013-01-12 04:35:00,
2013-01-11 22:40:00,39.3,38.8,29.32,SE,132,4.0,7.0,98,0.00,,SKC,0.04,VWS V14.01,2013-01-12 04:40:00,
2013-01-11 22:45:00,39.5,39.0,29.31,SE,128,4.0,8.0,98,0.00,,SKC,0.04,VWS V14.01,2013-01-12 04:45:00,
2013-01-11 22:50:00,39.6,39.1,29.31,East,97,0.0,8.0,98,0.00,,SKC,0.04,VWS V14.01,2013-01-12 04:50:00,
2013-01-11 22:55:00,39.6,39.1,29.31,SE,138,0.0,8.0,98,0.00,,SKC,0.04,VWS V14.01,2013-01-12 04:55:00,
2013-01-11 23:00:00,39.7,39.2,29.31,SE,136,0.0,0.0,98,0.00,,SKC,0.04,VWS V14.01,2013-01-12 05:00:00,
2013-01-11 23:01:00,39.7,39.2,29.31,East,91,0.0,4.0,98,0.00,,SKC,0.04,VWS V14.01,2013-01-12 05:01:00,
2013-01-11 23:02:00,39.7,39.2,29.31,East,96,2.0,4.0,98,0.00,,SKC,0.04,VWS V14.01,2013-01-12 05:02:00,
2013-01-11 23:07:00,39.7,39.2,29.31,ESE,115,2.0,7.0,98,0.00,,SKC,0.04,VWS V14.01,2013-01-12 05:07:00,
2013-01-11 23:12:00,39.8,39.3,29.31,SE,144,1.0,7.0,98,0.00,,SKC,0.04,VWS V14.01,2013-01-12 05:12:00,
2013-01-11 23:17:00,39.8,39.3,29.31,NW,306,0.0,7.0,98,0.00,,SKC,0.04,VWS V14.01,2013-01-12 05:17:00,
2013-01-11 23:22:00,39.7,39.2,29.32,East,97,6.0,7.0,98,0.00,,SKC,0.04,VWS V14.01,2013-01-12 05:22:00,
2013-01-11 23:27:00,39.7,39.2,29.32,West,279,4.0,9.0,98,0.00,,SKC,0.04,VWS V14.01,2013-01-12 05:27:00,
2013-01-11 23:32:00,39.6,39.1,29.32,SE,125,1.0,8.0,98,0.00,,SKC,0.04,VWS V14.01,2013-01-12 05:32:00,
2013-01-11 23:37:00,39.4,38.9,29.32,SSW,196,0.0,10.0,98,0.00,,SKC,0.04,VWS V14.01,2013-01-12 05:37:00,
2013-01-11 23:42:00,39.2,38.7,29.32,East,87,0.0,10.0,98,0.00,,SKC,0.04,VWS V14.01,2013-01-12 05:42:00,
2013-01-11 23:46:00,39.0,38.5,29.33,SSW,202,3.0,10.0,98,0.00,,SKC,0.04,VWS V14.01,2013-01-12 05:46:00,
2013-01-11 23:51:00,38.7,38.2,29.32,SW,227,2.0,10.0,98,0.00,,SKC,0.04,VWS V14.01,2013-01-12 05:51:00,
2013-01-11 23:56:00,38.4,37.9,29.33,WNW,292,1.0,10.0,98,0.00,,SKC,0.04,VWS V14.01,2013-01-12 05:56:00,